Time;durP1;ratioP1;P1;durP2;ratioP2;P2;SDS_P1;SDS_P2;PMS_P1;PMS_P2;Temp;Humidity;BMP_temperature;BMP_pressure;BME280_temperature;BME280_humidity;BME280_pressure;Samples;Min_cycle;Max_cycle;Signal;HPM_P1;HPM_P2
2021/04/12 00:00:49;;;;;;;1999.90;999.90;;;;;;;4.04;100.00;-18018.13;5057795;28;20200;-32
2021/04/12 00:03:44;;;;;;;1999.90;999.90;;;;;;;3.89;100.00;-18014.22;5057182;28;20285;-34
2021/04/12 00:06:37;;;;;;;1999.90;999.90;;;;;;;3.94;100.00;-18015.56;5057443;28;20500;-35
2021/04/12 00:09:35;;;;;;;1999.90;999.90;;;;;;;4.27;100.00;-18024.16;5057484;28;20216;-36
2021/04/12 00:12:26;;;;;;;1999.90;999.90;;;;;;;4.02;100.00;-18017.56;5057612;28;20216;-34
2021/04/12 00:15:20;;;;;;;1999.90;999.90;;;;;;;3.87;100.00;-18013.69;5057566;28;20243;-33
2021/04/12 00:18:12;;;;;;;1999.90;999.90;;;;;;;3.92;100.00;-18015.03;5057205;28;20355;-34
2021/04/12 00:21:04;;;;;;;1999.90;999.90;;;;;;;3.83;100.00;-18012.59;5057158;28;20205;-32
2021/04/12 00:23:55;;;;;;;1999.90;999.90;;;;;;;3.81;100.00;-18012.06;5057358;28;20600;-34
2021/04/12 00:26:48;;;;;;;1999.90;999.90;;;;;;;3.61;100.00;-18006.81;5057054;28;20339;-33
2021/04/12 00:29:42;;;;;;;1999.90;999.90;;;;;;;3.95;100.00;-18015.69;5056984;28;20240;-34
2021/04/12 00:32:33;;;;;;;1999.90;999.90;;;;;;;3.64;100.00;-18007.63;5057168;28;20197;-32
2021/04/12 00:35:25;;;;;;;1999.90;999.90;;;;;;;3.72;100.00;-18009.78;5056933;28;20431;-33
2021/04/12 00:38:17;;;;;;;1999.90;999.90;;;;;;;3.99;100.00;-18016.78;5056744;28;20331;-33
2021/04/12 00:41:12;;;;;;;1999.90;999.90;;;;;;;3.53;100.00;-18004.53;5057129;28;20196;-32
2021/04/12 00:44:07;;;;;;;1999.90;999.90;;;;;;;3.55;100.00;-18005.22;5056877;28;20331;-33
2021/04/12 00:47:09;;;;;;;1999.90;999.90;;;;;;;3.78;100.00;-18011.41;5056672;28;20197;-34
2021/04/12 00:50:13;;;;;;;1999.90;999.90;;;;;;;3.75;100.00;-18010.47;5056805;28;20199;-36
2021/04/12 00:53:38;;;;;;;1999.90;999.90;;;;;;;3.30;100.00;-17998.63;5056833;28;20196;-34
2021/04/12 00:56:33;;;;;;;1999.90;999.90;;;;;;;3.41;100.00;-18001.44;5057101;28;20196;-31
2021/04/12 00:59:33;;;;;;;1999.90;999.90;;;;;;;3.69;100.00;-18008.97;5056776;28;20199;-32
2021/04/12 01:02:32;;;;;;;1999.90;999.90;;;;;;;4.13;100.00;-18020.66;5056386;28;20336;-31
2021/04/12 01:05:32;;;;;;;1999.90;999.90;;;;;;;4.01;100.00;-18017.44;5057057;28;20192;-33
2021/04/12 01:08:43;;;;;;;1999.90;999.90;;;;;;;3.77;100.00;-18011.13;5056488;28;20290;-33
2021/04/12 01:11:51;;;;;;;1999.90;999.90;;;;;;;3.25;100.00;-17997.28;5056749;28;20536;-32
2021/04/12 01:15:09;;;;;;;1999.90;999.90;;;;;;;3.42;100.00;-18001.84;5055464;28;20336;-36
2021/04/12 01:18:31;;;;;;;1999.90;999.90;;;;;;;3.00;100.00;-17990.56;5055540;28;20205;-35
2021/04/12 01:21:49;;;;;;;1999.90;999.90;;;;;;;3.11;100.00;-17993.53;5055650;28;20586;-37
2021/04/12 01:25:09;;;;;;;1999.90;999.90;;;;;;;2.99;100.00;-17990.28;5056447;28;20204;-32
2021/04/12 01:28:43;;;;;;;1999.90;999.90;;;;;;;3.25;100.00;-17997.16;4996900;28;20673;-32
2021/04/12 01:32:11;;;;;;;1999.90;999.90;;;;;;;3.44;100.00;-18002.25;5055951;28;20204;-32
2021/04/12 01:35:29;;;;;;;1999.90;999.90;;;;;;;3.26;100.00;-17997.41;5056348;28;20209;-35
2021/04/12 01:38:35;;;;;;;1999.90;999.90;;;;;;;3.35;100.00;-17999.84;5056031;28;20619;-32
2021/04/12 01:41:31;;;;;;;1999.90;999.90;;;;;;;3.56;100.00;-18005.50;5055865;28;20201;-36
2021/04/12 01:44:34;;;;;;;1999.90;999.90;;;;;;;3.75;100.00;-18010.59;5055310;28;20314;-32
2021/04/12 01:47:41;;;;;;;1999.90;999.90;;;;;;;3.78;100.00;-18011.25;5055965;28;20350;-37
2021/04/12 01:50:51;;;;;;;1999.90;999.90;;;;;;;3.72;100.00;-18009.78;5055948;28;20195;-32
2021/04/12 01:54:07;;;;;;;1999.90;999.90;;;;;;;3.65;100.00;-18007.91;5056213;28;20722;-34
2021/04/12 01:57:22;;;;;;;1999.90;999.90;;;;;;;3.55;100.00;-18005.22;5055691;28;20878;-32
2021/04/12 02:00:40;;;;;;;1999.90;999.90;;;;;;;3.27;100.00;-17997.81;5048408;28;20458;-32
2021/04/12 02:03:37;;;;;;;1999.90;999.90;;;;;;;3.43;100.00;-18002.00;5039395;28;20636;-35
2021/04/12 02:06:40;;;;;;;1999.90;999.90;;;;;;;3.58;100.00;-18005.88;5056195;28;20443;-32
2021/04/12 02:10:02;;;;;;;1999.90;999.90;;;;;;;3.59;100.00;-18006.28;5055579;28;20865;-33
2021/04/12 02:12:58;;;;;;;1999.90;999.90;;;;;;;3.44;100.00;-18002.25;5046281;28;20451;-35
2021/04/12 02:15:57;;;;;;;1999.90;999.90;;;;;;;3.32;100.00;-17999.03;5056151;28;20544;-35
2021/04/12 02:19:15;;;;;;;1999.90;999.90;;;;;;;3.22;100.00;-17996.34;5056285;28;20196;-32
2021/04/12 02:22:35;;;;;;;1999.90;999.90;;;;;;;2.99;100.00;-17990.44;5056033;28;20911;-34
2021/04/12 02:25:34;;;;;;;1999.90;999.90;;;;;;;3.12;100.00;-17993.78;5057272;28;20905;-34
2021/04/12 02:28:39;;;;;;;1999.90;999.90;;;;;;;3.21;100.00;-17996.22;5059211;28;20486;-34
2021/04/12 02:31:42;;;;;;;1999.90;999.90;;;;;;;3.19;100.00;-17995.53;5059445;28;20446;-33
2021/04/12 02:34:39;;;;;;;1999.90;999.90;;;;;;;3.11;100.00;-17993.53;5059024;28;20462;-35
2021/04/12 02:37:42;;;;;;;1999.90;999.90;;;;;;;3.11;100.00;-17993.66;5059511;28;20484;-32
2021/04/12 02:40:54;;;;;;;1999.90;999.90;;;;;;;3.05;100.00;-17992.03;5059861;28;20543;-34
2021/04/12 02:43:50;;;;;;;1999.90;999.90;;;;;;;2.97;100.00;-17989.75;5059263;28;20545;-33
2021/04/12 02:47:06;;;;;;;1999.90;999.90;;;;;;;3.03;100.00;-17991.38;5059472;28;20910;-35
2021/04/12 02:50:05;;;;;;;1999.90;999.90;;;;;;;2.90;100.00;-17987.88;5059090;28;20469;-34
2021/04/12 02:53:03;;;;;;;1999.90;999.90;;;;;;;2.87;100.00;-17987.19;5059108;28;20715;-33
2021/04/12 02:56:20;;;;;;;1999.90;999.90;;;;;;;2.94;100.00;-17989.09;5059004;28;20439;-36
2021/04/12 02:59:23;;;;;;;1999.90;999.90;;;;;;;2.93;100.00;-17988.69;5058917;28;20443;-32
2021/04/12 03:02:50;;;;;;;1999.90;999.90;;;;;;;3.00;100.00;-17990.69;5058687;28;20957;-35
2021/04/12 03:05:57;;;;;;;1999.90;999.90;;;;;;;2.90;100.00;-17988.00;5058969;28;20510;-35
2021/04/12 03:09:02;;;;;;;1999.90;999.90;;;;;;;2.85;100.00;-17986.53;5058941;28;20466;-32
2021/04/12 03:12:23;;;;;;;1999.90;999.90;;;;;;;2.80;100.00;-17985.19;5058565;28;20450;-32
2021/04/12 03:15:37;;;;;;;1999.90;999.90;;;;;;;2.91;100.00;-17988.28;5058599;28;20443;-31
2021/04/12 03:18:58;;;;;;;1999.90;999.90;;;;;;;2.85;100.00;-17986.66;5058527;28;20450;-34
2021/04/12 03:22:13;;;;;;;1999.90;999.90;;;;;;;2.79;100.00;-17985.06;5058209;28;20917;-34
2021/04/12 03:25:19;;;;;;;1999.90;999.90;;;;;;;2.79;100.00;-17985.06;5057965;28;20443;-31
2021/04/12 03:28:27;;;;;;;1999.90;999.90;;;;;;;2.89;100.00;-17987.75;5058104;28;20575;-33
2021/04/12 03:31:27;;;;;;;1999.90;999.90;;;;;;;2.90;100.00;-17988.00;5058425;28;20728;-35
2021/04/12 03:34:22;;;;;;;1999.90;999.90;;;;;;;2.78;100.00;-17984.66;5058323;28;20585;-32
2021/04/12 03:37:44;;;;;;;1999.90;999.90;;;;;;;2.64;100.00;-17981.00;5057380;28;20494;-33
2021/04/12 03:40:33;;;;;;;1999.90;999.90;;;;;;;2.63;100.00;-17980.88;5053338;28;20831;-33
2021/04/12 03:43:31;;;;;;;1999.90;999.90;;;;;;;2.64;100.00;-17981.00;5057752;28;20762;-34
2021/04/12 03:46:28;;;;;;;1999.90;999.90;;;;;;;2.58;100.00;-17979.53;5057758;28;20451;-34
2021/04/12 03:49:45;;;;;;;1999.90;999.90;;;;;;;2.57;100.00;-17979.28;5058010;28;20549;-31
2021/04/12 03:52:54;;;;;;;1999.90;999.90;;;;;;;2.79;100.00;-17985.06;5057451;28;20442;-33
2021/04/12 03:55:59;;;;;;;1999.90;999.90;;;;;;;2.75;100.00;-17983.97;5058290;28;20442;-32
2021/04/12 03:58:57;;;;;;;1999.90;999.90;;;;;;;2.65;100.00;-17981.41;5050377;28;20882;-31
2021/04/12 04:02:12;;;;;;;1999.90;999.90;;;;;;;2.65;100.00;-17981.41;5057678;28;20439;-33
2021/04/12 04:05:18;;;;;;;1999.90;999.90;;;;;;;2.65;100.00;-17981.28;5057680;28;20601;-31
2021/04/12 04:08:29;;;;;;;1999.90;999.90;;;;;;;2.63;100.00;-17980.75;5056986;28;20909;-34
2021/04/12 04:11:44;;;;;;;1999.90;999.90;;;;;;;2.67;100.00;-17981.81;5057008;28;20505;-34
2021/04/12 04:14:53;;;;;;;1999.90;999.90;;;;;;;2.53;100.00;-17978.06;5057836;28;20459;-36
2021/04/12 04:17:55;;;;;;;1999.90;999.90;;;;;;;2.66;100.00;-17981.56;5057451;28;20578;-42
2021/04/12 04:21:14;;;;;;;1999.90;999.90;;;;;;;2.58;100.00;-17979.53;5057239;28;20450;-42
2021/04/12 04:24:20;;;;;;;1999.90;999.90;;;;;;;2.58;100.00;-17979.53;5034954;28;20490;-41
2021/04/12 04:27:43;;;;;;;1999.90;999.90;;;;;;;2.59;100.00;-17979.81;5057233;28;20673;-40
2021/04/12 04:30:47;;;;;;;1999.90;999.90;;;;;;;2.60;100.00;-17979.94;5057314;28;20439;-40
2021/04/12 04:34:03;;;;;;;1999.90;999.90;;;;;;;2.54;100.00;-17978.31;5056926;28;20540;-40
2021/04/12 04:37:37;;;;;;;1999.90;999.90;;;;;;;2.54;100.00;-17978.31;5057034;28;20608;-41
2021/04/12 04:40:44;;;;;;;1999.90;999.90;;;;;;;2.43;100.00;-17975.50;5021760;28;20731;-40
2021/04/12 04:44:04;;;;;;;1999.90;999.90;;;;;;;2.27;100.00;-17971.31;5057118;28;20614;-39
2021/04/12 04:47:13;;;;;;;1999.90;999.90;;;;;;;2.39;100.00;-17974.56;5056728;28;20443;-41
2021/04/12 04:50:21;;;;;;;1999.90;999.90;;;;;;;2.44;100.00;-17975.75;5056566;28;20447;-39
2021/04/12 04:53:37;;;;;;;1999.90;999.90;;;;;;;2.57;100.00;-17979.28;5056712;28;20506;-40
2021/04/12 04:56:32;;;;;;;1999.90;999.90;;;;;;;2.42;100.00;-17975.38;5032921;28;20735;-44
2021/04/12 04:59:43;;;;;;;1999.90;999.90;;;;;;;2.50;100.00;-17977.38;5056102;28;20881;-44
2021/04/12 05:03:02;;;;;;;1999.90;999.90;;;;;;;2.47;100.00;-17976.44;5056674;28;20443;-43
2021/04/12 05:06:07;;;;;;;1999.90;999.90;;;;;;;2.56;100.00;-17979.00;5015731;28;20562;-43
2021/04/12 05:09:27;;;;;;;1999.90;999.90;;;;;;;2.37;100.00;-17973.88;5055864;28;20722;-43
2021/04/12 05:13:01;;;;;;;1999.90;999.90;;;;;;;2.76;100.00;-17984.38;5056272;28;20863;-43
2021/04/12 05:16:09;;;;;;;1999.90;999.90;;;;;;;2.77;100.00;-17984.50;4956061;29;20447;-43
2021/04/12 05:19:40;;;;;;;1999.90;999.90;;;;;;;2.74;100.00;-17983.72;5055832;28;20447;-36
2021/04/12 05:23:03;;;;;;;1999.90;999.90;;;;;;;3.06;100.00;-17992.31;5055238;28;20597;-32
2021/04/12 05:26:19;;;;;;;1999.90;999.90;;;;;;;3.02;100.00;-17991.22;5055740;28;20446;-33
2021/04/12 05:29:30;;;;;;;1999.90;999.90;;;;;;;2.99;100.00;-17990.28;5055863;28;20536;-34
2021/04/12 05:32:50;;;;;;;1999.90;999.90;;;;;;;3.14;100.00;-17994.19;5055514;28;20443;-35
2021/04/12 05:35:55;;;;;;;1999.90;999.90;;;;;;;3.02;100.00;-17991.09;5023050;28;20870;-38
2021/04/12 05:39:15;;;;;;;1999.90;999.90;;;;;;;2.64;100.00;-17981.00;5055736;28;20462;-33
2021/04/12 05:42:35;;;;;;;1999.90;999.90;;;;;;;2.69;100.00;-17982.34;5039547;28;20478;-34
2021/04/12 05:46:06;;;;;;;1999.90;999.90;;;;;;;2.92;100.00;-17988.41;5051504;28;20610;-35
2021/04/12 05:49:36;;;;;;;1999.90;999.90;;;;;;;2.96;100.00;-17989.50;5055711;28;20442;-34
2021/04/12 05:53:22;;;;;;;1999.90;999.90;;;;;;;2.96;100.00;-17989.50;5056064;28;20716;-36
2021/04/12 05:56:29;;;;;;;1999.90;999.90;;;;;;;3.02;100.00;-17991.22;4959049;28;20455;-37
2021/04/12 05:59:33;;;;;;;1999.90;999.90;;;;;;;2.99;100.00;-17990.28;5035095;28;20439;-35
2021/04/12 06:02:29;;;;;;;1999.90;999.90;;;;;;;3.28;100.00;-17998.09;5039884;28;20549;-33
2021/04/12 06:05:26;;;;;;;1999.90;999.90;;;;;;;3.62;100.00;-18007.09;5039853;28;20824;-35
2021/04/12 06:08:40;;;;;;;1999.90;999.90;;;;;;;3.53;100.00;-18004.53;5039560;28;20607;-35
2021/04/12 06:11:59;;;;;;;1999.90;999.90;;;;;;;3.15;100.00;-17994.47;5039083;28;20504;-38
2021/04/12 06:15:31;;;;;;;1999.90;999.90;;;;;;;3.22;100.00;-17996.47;5051510;28;20862;-38
2021/04/12 06:18:55;;;;;;;1999.90;999.90;;;;;;;3.36;100.00;-18000.09;5058588;28;20438;-33
2021/04/12 06:22:17;;;;;;;1999.90;999.90;;;;;;;4.04;100.00;-18018.13;5027956;28;21274;-34
2021/04/12 06:25:16;;;;;;;1999.90;999.90;;;;;;;4.75;100.00;-18036.94;5058053;28;20534;-36
2021/04/12 06:28:36;;;;;;;1999.90;999.90;;;;;;;5.06;100.00;-18045.25;5057978;28;20632;-38
2021/04/12 06:31:54;;;;;;;1999.90;999.90;;;;;;;4.19;100.00;-18022.16;5058581;28;20274;-36
2021/04/12 06:35:24;;;;;;;1999.90;999.90;;;;;;;4.17;100.00;-18021.47;5058886;28;20485;-38
2021/04/12 06:39:06;;;;;;;1999.90;999.90;;;;;;;4.82;100.00;-18038.81;5031690;28;20204;-36
2021/04/12 06:42:28;;;;;;;1999.90;999.90;;;;;;;6.34;100.00;-18079.06;4997650;28;20198;-37
2021/04/12 06:45:50;;;;;;;1999.90;999.90;;;;;;;8.02;100.00;-18123.31;4997105;28;20629;-37
2021/04/12 06:49:11;;;;;;;1999.90;999.90;;;;;;;9.24;100.00;-18155.72;5058441;28;20302;-35
2021/04/12 06:52:39;;;;;;;1999.90;999.90;;;;;;;9.24;99.41;-18155.72;5058238;28;20589;-36
2021/04/12 06:55:41;;;;;;;1999.90;999.90;;;;;;;6.70;100.00;-18088.47;5020935;28;20208;-36
2021/04/12 06:58:57;;;;;;;1999.90;999.90;;;;;;;7.20;100.00;-18101.72;5037933;28;20206;-40
2021/04/12 07:02:16;;;;;;;1999.90;999.90;;;;;;;6.60;100.00;-18085.78;5037929;28;20383;-38
2021/04/12 07:05:39;;;;;;;1999.90;999.90;;;;;;;7.35;100.00;-18105.63;5038555;28;20201;-35
2021/04/12 07:09:04;;;;;;;1999.90;999.90;;;;;;;7.22;100.00;-18102.41;5037804;28;20205;-36
2021/04/12 07:12:31;;;;;;;1999.90;999.90;;;;;;;7.03;100.00;-18097.31;5014580;28;20662;-37
2021/04/12 07:15:51;;;;;;;1999.90;999.90;;;;;;;7.26;100.00;-18103.34;5037102;28;20491;-37
2021/04/12 07:19:13;;;;;;;1999.90;999.90;;;;;;;9.14;100.00;-18152.91;5037524;28;20217;-36
2021/04/12 07:22:33;;;;;;;1999.90;999.90;;;;;;;10.55;98.38;-18190.25;5038389;28;20221;-37
2021/04/12 07:26:01;;;;;;;1999.90;999.90;;;;;;;10.29;100.00;-18183.41;5037381;28;20202;-37
2021/04/12 07:29:28;;;;;;;1999.90;999.90;;;;;;;9.95;99.17;-18174.47;5049618;28;20379;-43
2021/04/12 07:32:53;;;;;;;1999.90;999.90;;;;;;;9.96;100.00;-18174.72;5038359;28;20596;-42
2021/04/12 07:36:36;;;;;;;1999.90;999.90;;;;;;;10.29;94.81;-18183.41;5037944;28;20609;-41
2021/04/12 07:39:56;;;;;;;1999.90;999.90;;;;;;;9.98;100.00;-18175.25;5037443;28;20201;-42
2021/04/12 07:43:24;;;;;;;1999.90;999.90;;;;;;;11.16;90.53;-18206.28;5037230;28;20204;-42
2021/04/12 07:46:43;;;;;;;1999.90;999.90;;;;;;;9.70;100.00;-18167.78;5048281;28;20207;-42
2021/04/12 07:50:13;;;;;;;1999.90;999.90;;;;;;;9.96;100.00;-18174.72;5057294;28;20272;-43
2021/04/12 07:53:39;;;;;;;1999.90;999.90;;;;;;;9.67;100.00;-18167.09;5056933;28;20234;-42
2021/04/12 07:56:58;;;;;;;1999.90;999.90;;;;;;;10.10;100.00;-18178.19;5056115;28;20294;-42
2021/04/12 08:00:17;;;;;;;1999.90;999.90;;;;;;;8.68;100.00;-18140.72;5056664;28;20245;-42
2021/04/12 08:03:41;;;;;;;1999.90;999.90;;;;;;;6.90;100.00;-18093.81;5056549;28;20229;-42
2021/04/12 08:07:07;;;;;;;1999.90;999.90;;;;;;;7.74;100.00;-18116.09;5057824;28;20600;-43
2021/04/12 08:10:39;;;;;;;1999.90;999.90;;;;;;;8.78;100.00;-18143.53;5057132;28;20201;-42
2021/04/12 08:14:16;;;;;;;1999.90;999.90;;;;;;;8.53;100.00;-18136.84;5057370;28;20622;-42
2021/04/12 08:17:38;;;;;;;1999.90;999.90;;;;;;;6.55;100.00;-18084.72;5057623;28;20208;-42
2021/04/12 08:20:43;;;;;;;1999.90;999.90;;;;;;;6.95;100.00;-18095.03;5056303;28;20351;-42
2021/04/12 08:24:11;;;;;;;1999.90;999.90;;;;;;;7.89;100.00;-18119.97;5055583;28;20266;-42
2021/04/12 08:27:37;;;;;;;1999.90;999.90;;;;;;;9.47;100.00;-18161.63;5057514;28;20197;-41
2021/04/12 08:30:55;;;;;;;1999.90;999.90;;;;;;;9.72;98.51;-18168.31;5056749;28;20603;-42
2021/04/12 08:34:23;;;;;;;1999.90;999.90;;;;;;;8.30;100.00;-18130.81;5055848;28;20228;-42
2021/04/12 08:37:52;;;;;;;1999.90;999.90;;;;;;;7.75;100.00;-18116.34;5055966;28;20617;-42
2021/04/12 08:41:26;;;;;;;1999.90;999.90;;;;;;;8.20;100.00;-18128.28;5054440;28;20600;-42
2021/04/12 08:44:43;;;;;;;1999.90;999.90;;;;;;;8.24;100.00;-18129.22;5056333;28;20189;-43
2021/04/12 08:47:47;;;;;;;1999.90;999.90;;;;;;;6.16;100.00;-18074.38;5056524;28;20192;-43
2021/04/12 08:51:14;;;;;;;1999.90;999.90;;;;;;;6.54;100.00;-18084.31;5056195;28;20255;-43
2021/04/12 08:54:38;;;;;;;1999.90;999.90;;;;;;;6.46;100.00;-18082.16;5056389;28;20371;-42
2021/04/12 08:58:05;;;;;;;1999.90;999.90;;;;;;;8.00;100.00;-18122.78;5056139;28;20199;-43
2021/04/12 09:01:27;;;;;;;1999.90;999.90;;;;;;;8.12;100.00;-18126.13;5055729;28;20290;-43
2021/04/12 09:04:41;;;;;;;1999.90;999.90;;;;;;;6.93;100.00;-18094.63;5055935;28;20600;-42
2021/04/12 09:07:59;;;;;;;1999.90;999.90;;;;;;;6.53;100.00;-18084.03;5036027;28;20573;-42
2021/04/12 09:11:15;;;;;;;1999.90;999.90;;;;;;;7.06;100.00;-18098.13;5025390;28;20207;-41
2021/04/12 09:14:37;;;;;;;1999.90;999.90;;;;;;;7.26;100.00;-18103.34;5036582;28;20232;-42
2021/04/12 09:17:43;;;;;;;1999.90;999.90;;;;;;;6.43;100.00;-18081.50;5036389;28;20580;-42
2021/04/12 09:20:53;;;;;;;1999.90;999.90;;;;;;;6.58;100.00;-18085.38;5035388;28;20227;-35
2021/04/12 09:24:25;;;;;;;1999.90;999.90;;;;;;;7.38;100.00;-18106.56;5035793;28;20381;-44
2021/04/12 09:27:42;;;;;;;1999.90;999.90;;;;;;;9.72;100.00;-18168.16;4999798;28;20289;-44
2021/04/12 09:31:18;;;;;;;1999.90;999.90;;;;;;;9.47;98.54;-18161.75;5035597;28;20292;-44
2021/04/12 09:34:54;;;;;;;1999.90;999.90;;;;;;;9.18;90.44;-18154.13;5007613;28;20375;-45
2021/04/12 09:38:02;;;;;;;1999.90;999.90;;;;;;;8.00;100.00;-18122.91;5035694;28;20303;-44
2021/04/12 09:41:18;;;;;;;1999.90;999.90;;;;;;;7.70;100.00;-18115.00;5034818;28;20356;-44
2021/04/12 09:44:34;;;;;;;1999.90;999.90;;;;;;;7.53;100.00;-18110.44;5018257;28;20201;-44
2021/04/12 09:47:56;;;;;;;1999.90;999.90;;;;;;;7.43;100.00;-18107.78;5035464;28;20291;-45
2021/04/12 09:51:11;;;;;;;1999.90;999.90;;;;;;;7.22;100.00;-18102.28;5036026;28;20665;-44
2021/04/12 09:54:31;;;;;;;1999.90;999.90;;;;;;;6.60;100.00;-18085.91;5035548;28;20220;-44
2021/04/12 09:57:58;;;;;;;1999.90;999.90;;;;;;;6.45;100.00;-18082.03;5035451;28;20227;-33
2021/04/12 10:01:08;;;;;;;1999.90;999.90;;;;;;;7.82;100.00;-18118.09;5014366;28;20612;-46
2021/04/12 10:04:26;;;;;;;1999.90;999.90;;;;;;;9.05;100.00;-18150.63;5035498;28;20208;-46
2021/04/12 10:07:31;;;;;;;1999.90;999.90;;;;;;;11.40;86.18;-18212.56;5035602;28;20216;-46
2021/04/12 10:10:21;;;;;;;1999.90;999.90;;;;;;;10.94;80.02;-18200.41;5035124;28;20196;-46
2021/04/12 10:13:27;;;;;;;1999.90;999.90;;;;;;;11.69;85.24;-18220.19;5035205;28;20402;-46
2021/04/12 10:16:22;;;;;;;1999.90;999.90;;;;;;;8.82;90.99;-18144.63;5035485;28;20506;-46
2021/04/12 10:19:16;;;;;;;1999.90;999.90;;;;;;;7.03;99.59;-18097.31;5035571;28;20481;-46
2021/04/12 10:22:17;;;;;;;1999.90;999.90;;;;;;;7.42;100.00;-18107.50;5042384;28;20275;-46
2021/04/12 10:25:08;;;;;;;1999.90;999.90;;;;;;;7.10;100.00;-18099.06;5035596;28;20298;-46
2021/04/12 10:28:09;;;;;;;1999.90;999.90;;;;;;;7.11;95.40;-18099.47;5035552;28;20248;-46
2021/04/12 10:31:11;;;;;;;1999.90;999.90;;;;;;;7.76;97.58;-18116.47;5052416;28;20261;-46
2021/04/12 10:34:12;;;;;;;1999.90;999.90;;;;;;;8.63;84.71;-18139.66;5054787;28;20231;-46
2021/04/12 10:37:27;;;;;;;1999.90;999.90;;;;;;;8.45;85.47;-18134.69;5054901;28;20616;-46
2021/04/12 10:40:22;;;;;;;1999.90;999.90;;;;;;;6.91;98.94;-18094.22;5051673;28;20209;-45
2021/04/12 10:43:17;;;;;;;1999.90;999.90;;;;;;;6.70;100.00;-18088.47;5055557;28;20817;-45
2021/04/12 10:46:13;;;;;;;1999.90;999.90;;;;;;;6.87;100.00;-18093.16;5055253;28;20200;-46
2021/04/12 10:49:09;;;;;;;1999.90;999.90;;;;;;;7.60;100.00;-18112.47;5058900;28;20201;-45
2021/04/12 10:52:03;;;;;;;1999.90;999.90;;;;;;;8.56;100.00;-18137.66;5058823;28;20217;-45
2021/04/12 10:55:08;;;;;;;1999.90;999.90;;;;;;;8.09;94.77;-18125.31;5057441;28;20504;-45
2021/04/12 10:58:13;;;;;;;1999.90;999.90;;;;;;;8.98;95.65;-18148.91;5039232;28;20356;-45
2021/04/12 11:01:06;;;;;;;1999.90;999.90;;;;;;;9.66;89.36;-18166.69;5057525;28;20201;-46
2021/04/12 11:04:04;;;;;;;1999.90;999.90;;;;;;;9.76;86.25;-18169.38;5057807;28;20609;-46
2021/04/12 11:07:13;;;;;;;1999.90;999.90;;;;;;;9.84;79.14;-18171.50;5057844;28;20259;-46
2021/04/12 11:10:17;;;;;;;1999.90;999.90;;;;;;;9.56;79.33;-18164.03;5057787;28;20270;-48
2021/04/12 11:13:24;;;;;;;1999.90;999.90;;;;;;;7.87;94.08;-18119.44;5057563;28;20355;-48
2021/04/12 11:16:18;;;;;;;1999.90;999.90;;;;;;;6.22;100.00;-18075.84;5058367;28;20302;-46
2021/04/12 11:19:19;;;;;;;1999.90;999.90;;;;;;;6.23;100.00;-18076.25;5057720;28;20208;-46
2021/04/12 11:22:24;;;;;;;1999.90;999.90;;;;;;;6.40;100.00;-18080.69;5057262;28;20199;-46
2021/04/12 11:25:20;;;;;;;1999.90;999.90;;;;;;;6.77;100.00;-18090.34;5057743;28;20321;-46
2021/04/12 11:28:26;;;;;;;1999.90;999.90;;;;;;;7.41;100.00;-18107.22;5048255;28;20247;-46
2021/04/12 11:31:29;;;;;;;1999.90;999.90;;;;;;;7.20;100.00;-18101.72;5041168;28;20761;-47
2021/04/12 11:34:32;;;;;;;1999.90;999.90;;;;;;;7.98;100.00;-18122.25;5057138;28;20640;-46
2021/04/12 11:37:25;;;;;;;1999.90;999.90;;;;;;;8.04;100.00;-18123.84;5056086;28;20266;-46
2021/04/12 11:40:18;;;;;;;1999.90;999.90;;;;;;;9.05;100.00;-18150.50;5038204;28;20341;-46
2021/04/12 11:43:12;;;;;;;1999.90;999.90;;;;;;;9.58;100.00;-18164.69;5054019;28;20217;-46
2021/04/12 11:46:08;;;;;;;1999.90;999.90;;;;;;;10.04;100.00;-18176.72;5038302;28;20209;-46
2021/04/12 11:49:03;;;;;;;1999.90;999.90;;;;;;;9.91;99.01;-18173.25;5050402;28;20207;-47
2021/04/12 11:51:59;;;;;;;1999.90;999.90;;;;;;;11.34;90.35;-18210.97;5057570;28;20593;-46
2021/04/12 11:54:56;;;;;;;1999.90;999.90;;;;;;;11.27;81.63;-18209.09;5056990;28;20225;-47
2021/04/12 11:57:49;;;;;;;1999.90;999.90;;;;;;;11.09;73.79;-18204.28;5037179;28;20221;-47
2021/04/12 12:00:49;;;;;;;1999.90;999.90;;;;;;;10.76;69.37;-18195.72;5052145;28;20203;-46
2021/04/12 12:03:57;;;;;;;1999.90;999.90;;;;;;;10.71;69.72;-18194.38;5048603;28;20408;-47
2021/04/12 12:07:12;;;;;;;1999.90;999.90;;;;;;;10.37;68.52;-18185.28;5057002;28;20196;-46
2021/04/12 12:10:14;;;;;;;1999.90;999.90;;;;;;;11.69;72.57;-18220.19;5057340;28;20342;-46
2021/04/12 12:13:06;;;;;;;1999.90;999.90;;;;;;;11.25;66.86;-18208.69;5057625;28;20591;-46
2021/04/12 12:16:06;;;;;;;1999.90;999.90;;;;;;;10.35;67.16;-18184.91;5057475;28;20195;-46
2021/04/12 12:18:59;;;;;;;1999.90;999.90;;;;;;;9.44;74.27;-18160.81;5056812;28;20297;-46
2021/04/12 12:21:59;;;;;;;1999.90;999.90;;;;;;;8.94;71.65;-18147.81;5055979;28;20299;-46
2021/04/12 12:24:55;;;;;;;1999.90;999.90;;;;;;;7.99;77.14;-18122.66;5056268;28;20334;-45
2021/04/12 12:27:59;;;;;;;1999.90;999.90;;;;;;;7.29;87.95;-18104.16;5056740;28;20343;-45
2021/04/12 12:30:57;;;;;;;1999.90;999.90;;;;;;;6.90;93.43;-18093.81;5056424;28;20343;-45
2021/04/12 12:33:54;;;;;;;1999.90;999.90;;;;;;;6.35;100.00;-18079.22;5056143;28;20247;-45
2021/04/12 12:36:51;;;;;;;1999.90;999.90;;;;;;;5.95;100.00;-18068.63;5055464;28;20260;-45
2021/04/12 12:39:41;;;;;;;1999.90;999.90;;;;;;;5.92;100.00;-18067.81;5055533;28;20356;-45
2021/04/12 12:42:32;;;;;;;1999.90;999.90;;;;;;;5.33;100.00;-18052.38;5055237;28;20293;-45
2021/04/12 12:45:27;;;;;;;1999.90;999.90;;;;;;;5.28;100.00;-18051.03;5056189;28;20461;-45
2021/04/12 12:48:20;;;;;;;1999.90;999.90;;;;;;;5.02;100.00;-18044.03;5056575;28;20671;-45
2021/04/12 12:51:15;;;;;;;1999.90;999.90;;;;;;;4.31;100.00;-18025.25;5056919;28;20197;-45
2021/04/12 12:54:07;;;;;;;1999.90;999.90;;;;;;;4.36;100.00;-18026.72;5055741;28;20694;-45
2021/04/12 12:57:03;;;;;;;1999.90;999.90;;;;;;;5.18;100.00;-18048.47;5055949;28;20351;-45
2021/04/12 12:59:57;;;;;;;1999.90;999.90;;;;;;;6.14;100.00;-18073.72;5056404;28;20221;-45
2021/04/12 13:02:47;;;;;;;1999.90;999.90;;;;;;;9.16;100.00;-18153.44;5056582;28;20638;-45
2021/04/12 13:05:38;;;;;;;1999.90;999.90;;;;;;;10.20;100.00;-18180.88;5055569;28;20202;-45
2021/04/12 13:08:27;;;;;;;1999.90;999.90;;;;;;;8.86;100.00;-18145.56;5056127;28;20201;-45
2021/04/12 13:11:31;;;;;;;1999.90;999.90;;;;;;;9.48;100.00;-18161.88;5054287;28;20248;-46
2021/04/12 13:14:34;;;;;;;1999.90;999.90;;;;;;;9.43;100.00;-18160.53;5053841;28;20315;-46
2021/04/12 13:17:28;;;;;;;1999.90;999.90;;;;;;;10.13;100.00;-18179.13;5055640;28;20477;-46
2021/04/12 13:20:23;;;;;;;1999.90;999.90;;;;;;;9.88;100.00;-18172.44;5055733;28;20208;-46
2021/04/12 13:23:16;;;;;;;1999.90;999.90;;;;;;;10.08;100.00;-18177.66;5055676;28;20291;-46
2021/04/12 13:26:21;;;;;;;1999.90;999.90;;;;;;;11.36;100.00;-18211.50;5054734;28;20221;-46
2021/04/12 13:29:13;;;;;;;1999.90;999.90;;;;;;;10.89;99.08;-18199.06;5055242;28;20393;-46
2021/04/12 13:32:00;;;;;;;1999.90;999.90;;;;;;;11.32;93.18;-18210.44;5055751;28;20575;-46
2021/04/12 13:34:50;;;;;;;1999.90;999.90;;;;;;;12.62;87.23;-18244.75;5055961;28;20228;-46
2021/04/12 13:37:44;;;;;;;1999.90;999.90;;;;;;;9.95;85.52;-18174.31;5055511;28;20323;-46
2021/04/12 13:40:42;;;;;;;1999.90;999.90;;;;;;;10.52;91.69;-18189.44;5054583;28;20189;-46
2021/04/12 13:43:31;;;;;;;1999.90;999.90;;;;;;;10.64;80.71;-18192.66;5055342;28;20609;-46
2021/04/12 13:46:21;;;;;;;1999.90;999.90;;;;;;;9.52;79.29;-18163.09;5055254;28;20209;-46
2021/04/12 13:49:12;;;;;;;1999.90;999.90;;;;;;;10.26;80.15;-18182.50;5055285;28;20294;-46